Terminal Aerodrome Forecast
Issued by NWS Mobile, AL

Home | Current Version | Previous Version | Text Only | Print | Product List | Glossary On
Versions: 1 2 3 4 5 6 7 8 9 10 11 12 13 14 15 16 17
000
FTUS44 KMOB 250536
TAFPNS
TAF
KPNS 250536Z 2506/2606 21007KT P6SM SCT007 BKN050
      TEMPO 2508/2512 4SM -SHRA BR OVC007
     FM251200 31013G20KT P6SM BKN050
     FM251400 34014G22KT P6SM SKC
     FM252300 35008KT P6SM SKC=

USA.gov is the U.S. government's official web portal to all federal, state and local government web resources and services.